createdAt,value
2023-07-09T00:00:20.103Z,25.26
2023-07-09T00:01:20.093Z,25.25
2023-07-09T00:02:41.097Z,25.25
2023-07-09T00:03:20.012Z,25.26
2023-07-09T00:04:20.104Z,25.29
2023-07-09T00:05:19.958Z,25.28
2023-07-09T00:06:21.877Z,25.21
2023-07-09T00:07:19.918Z,25.29
2023-07-09T00:08:40.871Z,25.18
2023-07-09T00:09:19.844Z,25.17
2023-07-09T00:10:19.827Z,25.14
2023-07-09T00:11:19.795Z,25.10
2023-07-09T00:12:19.761Z,25.11
2023-07-09T00:13:19.760Z,25.13
2023-07-09T00:14:40.709Z,25.16
2023-07-09T00:15:19.694Z,25.11
2023-07-09T00:16:19.736Z,25.13
2023-07-09T00:17:19.668Z,25.04
2023-07-09T00:18:19.607Z,25.08
2023-07-09T00:19:19.766Z,25.06
2023-07-09T00:20:40.548Z,25.04
2023-07-09T00:21:19.522Z,24.99
2023-07-09T00:22:19.495Z,24.93
2023-07-09T00:23:19.484Z,24.98
2023-07-09T00:24:19.436Z,24.95
2023-07-09T00:25:19.418Z,24.91
2023-07-09T00:26:40.411Z,24.93
2023-07-09T00:27:19.364Z,24.80
2023-07-09T00:28:19.334Z,24.84
2023-07-09T00:29:19.304Z,24.89
2023-07-09T00:30:19.276Z,24.84
2023-07-09T00:31:19.318Z,24.85
2023-07-09T00:32:40.264Z,24.76
2023-07-09T00:33:19.198Z,24.69
2023-07-09T00:34:19.174Z,24.80
2023-07-09T00:35:19.145Z,24.80
2023-07-09T00:36:19.117Z,24.77
2023-07-09T00:37:19.094Z,24.74
2023-07-09T00:38:40.142Z,24.73
2023-07-09T00:39:19.379Z,24.76
2023-07-09T00:40:19.018Z,24.74
2023-07-09T00:41:18.978Z,24.60
2023-07-09T00:42:18.956Z,24.66
2023-07-09T00:43:18.929Z,24.68
2023-07-09T00:44:39.899Z,24.63
2023-07-09T00:45:18.892Z,24.63
2023-07-09T00:46:18.960Z,24.61
2023-07-09T00:47:18.868Z,24.73
2023-07-09T00:48:18.817Z,24.58
2023-07-09T00:49:18.758Z,24.60
2023-07-09T00:50:39.739Z,24.58
2023-07-09T00:51:18.737Z,24.60
2023-07-09T00:52:18.725Z,24.57
2023-07-09T00:53:18.663Z,24.50
2023-07-09T00:54:18.615Z,24.63
2023-07-09T00:55:18.653Z,24.65
2023-07-09T00:56:39.566Z,24.60
2023-07-09T00:57:18.602Z,24.60
2023-07-09T00:58:18.532Z,24.50
2023-07-09T00:59:18.480Z,24.60
2023-07-09T01:00:18.474Z,24.54
2023-07-09T01:01:18.459Z,24.51
2023-07-09T01:02:39.413Z,24.57
2023-07-09T01:03:18.377Z,24.47
2023-07-09T01:04:18.345Z,24.55
2023-07-09T01:05:18.390Z,24.39
2023-07-09T01:06:18.300Z,24.38
2023-07-09T01:07:18.262Z,24.33
2023-07-09T01:08:39.237Z,24.32
2023-07-09T01:09:18.207Z,24.24
2023-07-09T01:10:18.192Z,24.23
2023-07-09T01:11:18.157Z,24.29
2023-07-09T01:12:18.127Z,24.26
2023-07-09T01:13:18.102Z,24.23
2023-07-09T01:14:39.074Z,24.23
2023-07-09T01:15:18.043Z,24.17
2023-07-09T01:16:18.028Z,24.21
2023-07-09T01:17:17.989Z,24.16
2023-07-09T01:18:17.957Z,24.14
2023-07-09T01:19:17.928Z,24.13
2023-07-09T01:20:38.906Z,24.10
2023-07-09T01:21:17.877Z,24.03
2023-07-09T01:22:17.850Z,24.05
2023-07-09T01:23:17.899Z,23.98
2023-07-09T01:24:17.793Z,24.08
2023-07-09T01:25:17.805Z,24.03
2023-07-09T01:26:38.737Z,24.03
2023-07-09T01:27:17.707Z,24.03
2023-07-09T01:28:17.688Z,24.02
2023-07-09T01:29:17.653Z,23.96
2023-07-09T01:30:17.619Z,24.01
2023-07-09T01:31:17.628Z,23.93
2023-07-09T01:32:38.613Z,23.93
2023-07-09T01:33:17.541Z,23.96
2023-07-09T01:34:17.513Z,23.88
2023-07-09T01:35:17.487Z,23.95
2023-07-09T01:36:17.459Z,23.95
2023-07-09T01:37:17.428Z,23.91
2023-07-09T01:38:38.425Z,23.95
2023-07-09T01:39:17.381Z,23.87
2023-07-09T01:40:29.229Z,23.88
2023-07-09T01:41:17.319Z,23.92
2023-07-09T01:42:17.298Z,23.96
2023-07-09T01:43:17.277Z,23.98
2023-07-09T01:44:38.235Z,23.88
2023-07-09T01:45:17.224Z,23.78
2023-07-09T01:46:17.184Z,23.86
2023-07-09T01:47:17.248Z,23.88
2023-07-09T01:48:17.524Z,23.84
2023-07-09T01:49:17.105Z,23.86
2023-07-09T01:50:38.073Z,23.84
2023-07-09T01:51:17.050Z,23.92
2023-07-09T01:52:17.015Z,23.88
2023-07-09T01:53:17.012Z,23.92
2023-07-09T01:54:17.022Z,23.77
2023-07-09T01:55:16.932Z,23.76
2023-07-09T01:56:37.895Z,23.91
2023-07-09T01:57:16.876Z,23.73
2023-07-09T01:58:16.844Z,23.73
2023-07-09T01:59:16.822Z,23.71
2023-07-09T02:00:16.837Z,23.80
2023-07-09T02:01:16.799Z,23.77
2023-07-09T02:02:37.759Z,23.76
2023-07-09T02:03:16.736Z,23.83
2023-07-09T02:04:16.701Z,23.77
2023-07-09T02:05:16.658Z,23.68
2023-07-09T02:06:16.668Z,23.69
2023-07-09T02:07:16.595Z,23.73
2023-07-09T02:08:37.567Z,23.76
2023-07-09T02:09:16.546Z,23.71
2023-07-09T02:10:16.625Z,23.69
2023-07-09T02:11:16.485Z,23.65
2023-07-09T02:12:16.455Z,23.68
2023-07-09T02:13:16.433Z,23.66
2023-07-09T02:14:37.401Z,23.71
2023-07-09T02:15:16.385Z,23.69
2023-07-09T02:16:16.346Z,23.61
2023-07-09T02:17:16.399Z,23.63
2023-07-09T02:18:16.302Z,23.61
2023-07-09T02:19:16.257Z,23.58
2023-07-09T02:20:37.234Z,23.63
2023-07-09T02:21:16.208Z,23.63
2023-07-09T02:22:16.176Z,23.55
2023-07-09T02:23:16.147Z,23.61
2023-07-09T02:24:16.120Z,23.61
2023-07-09T02:25:16.093Z,23.56
2023-07-09T02:26:37.162Z,23.54
2023-07-09T02:27:16.049Z,23.51
2023-07-09T02:28:16.005Z,23.59
2023-07-09T02:29:15.981Z,23.59
2023-07-09T02:30:15.952Z,23.58
2023-07-09T02:31:15.959Z,23.61
2023-07-09T02:32:36.976Z,23.54
2023-07-09T02:33:15.874Z,23.55
2023-07-09T02:34:15.834Z,23.54
2023-07-09T02:35:15.816Z,23.51
2023-07-09T02:36:15.781Z,23.47
2023-07-09T02:37:15.753Z,23.48
2023-07-09T02:38:36.727Z,23.58
2023-07-09T02:39:15.699Z,23.54
2023-07-09T02:40:15.667Z,23.61
2023-07-09T02:41:15.642Z,23.44
2023-07-09T02:42:15.624Z,23.51
2023-07-09T02:43:15.586Z,23.47
2023-07-09T02:44:36.557Z,23.44
2023-07-09T02:45:15.533Z,23.47
2023-07-09T02:46:15.498Z,23.48
2023-07-09T02:47:15.546Z,23.50
2023-07-09T02:48:15.525Z,23.41
2023-07-09T02:49:15.419Z,23.46
2023-07-09T02:50:36.379Z,23.50
2023-07-09T02:51:15.359Z,23.48
2023-07-09T02:52:15.350Z,23.48
2023-07-09T02:53:15.310Z,23.58
2023-07-09T02:54:15.276Z,23.51
2023-07-09T02:55:15.250Z,23.41
2023-07-09T02:56:36.268Z,23.43
2023-07-09T02:57:15.192Z,23.39
2023-07-09T02:58:15.164Z,23.40
2023-07-09T02:59:15.134Z,23.37
2023-07-09T03:00:15.111Z,23.41
2023-07-09T03:01:15.084Z,23.32
2023-07-09T03:02:36.081Z,23.40
2023-07-09T03:03:15.061Z,23.40
2023-07-09T03:04:14.994Z,23.39
2023-07-09T03:05:14.957Z,23.41
2023-07-09T03:06:14.936Z,23.34
2023-07-09T03:07:14.971Z,23.28
2023-07-09T03:08:35.881Z,23.36
2023-07-09T03:09:14.857Z,23.32
2023-07-09T03:10:14.870Z,23.36
2023-07-09T03:11:14.798Z,23.36
2023-07-09T03:12:14.770Z,23.34
2023-07-09T03:13:14.736Z,23.28
2023-07-09T03:14:35.715Z,23.24
2023-07-09T03:15:14.680Z,23.20
2023-07-09T03:16:14.703Z,23.23
2023-07-09T03:17:14.647Z,23.20
2023-07-09T03:18:14.601Z,23.23
2023-07-09T03:19:14.575Z,23.20
2023-07-09T03:20:35.540Z,23.23
2023-07-09T03:21:14.514Z,23.23
2023-07-09T03:22:14.489Z,23.31
2023-07-09T03:23:14.497Z,23.27
2023-07-09T03:24:14.433Z,23.20
2023-07-09T03:25:14.405Z,23.24
2023-07-09T03:26:35.392Z,23.27
2023-07-09T03:27:14.356Z,23.23
2023-07-09T03:28:14.319Z,23.25
2023-07-09T03:29:14.287Z,23.23
2023-07-09T03:30:14.270Z,23.21
2023-07-09T03:31:14.235Z,23.12
2023-07-09T03:32:35.225Z,23.23
2023-07-09T03:33:14.176Z,23.23
2023-07-09T03:34:14.149Z,23.23
2023-07-09T03:35:14.180Z,23.18
2023-07-09T03:36:14.371Z,23.12
2023-07-09T03:37:14.125Z,23.17
2023-07-09T03:38:35.033Z,23.18
2023-07-09T03:39:14.009Z,23.17
2023-07-09T03:40:13.985Z,23.18
2023-07-09T03:41:13.955Z,23.20
2023-07-09T03:42:13.929Z,23.12
2023-07-09T03:43:13.903Z,23.20
2023-07-09T03:44:34.863Z,23.23
2023-07-09T03:45:13.841Z,23.17
2023-07-09T03:46:13.815Z,23.21
2023-07-09T03:47:13.837Z,23.09
2023-07-09T03:48:13.796Z,23.17
2023-07-09T03:49:13.733Z,23.17
2023-07-09T03:50:34.691Z,23.17
2023-07-09T03:51:13.666Z,23.20
2023-07-09T03:52:13.639Z,23.20
2023-07-09T03:53:13.609Z,23.15
2023-07-09T03:54:13.587Z,23.21
2023-07-09T03:55:13.558Z,23.15
2023-07-09T03:56:34.528Z,23.24
2023-07-09T03:57:13.502Z,23.20
2023-07-09T03:58:13.466Z,23.21
2023-07-09T03:59:13.444Z,23.12
2023-07-09T04:00:13.425Z,23.24
2023-07-09T04:01:13.396Z,23.17
2023-07-09T04:02:34.391Z,23.18
2023-07-09T04:03:13.324Z,23.20
2023-07-09T04:04:13.452Z,23.17
2023-07-09T04:05:13.277Z,23.20
2023-07-09T04:06:13.241Z,23.20
2023-07-09T04:07:13.227Z,23.23
2023-07-09T04:08:34.185Z,23.18
2023-07-09T04:09:13.150Z,23.20
2023-07-09T04:10:13.134Z,23.20
2023-07-09T04:11:13.099Z,23.13
2023-07-09T04:12:13.070Z,23.18
2023-07-09T04:13:13.063Z,23.20
2023-07-09T04:14:34.012Z,23.21
2023-07-09T04:15:12.987Z,23.23
2023-07-09T04:16:13.022Z,23.20
2023-07-09T04:17:12.924Z,23.13
2023-07-09T04:18:12.914Z,23.20
2023-07-09T04:19:12.879Z,23.20
2023-07-09T04:20:33.840Z,23.17
2023-07-09T04:21:12.814Z,23.20
2023-07-09T04:22:12.791Z,23.15
2023-07-09T04:23:12.770Z,23.21
2023-07-09T04:24:12.737Z,23.23
2023-07-09T04:25:12.721Z,23.28
2023-07-09T04:26:33.667Z,23.21
2023-07-09T04:27:12.644Z,23.18
2023-07-09T04:28:12.617Z,23.24
2023-07-09T04:29:12.586Z,23.21
2023-07-09T04:30:12.563Z,23.23
2023-07-09T04:31:12.590Z,23.18
2023-07-09T04:32:33.508Z,23.18
2023-07-09T04:33:12.466Z,23.23
2023-07-09T04:34:12.457Z,23.20
2023-07-09T04:35:12.415Z,23.23
2023-07-09T04:36:12.384Z,23.24
2023-07-09T04:37:12.359Z,23.20
2023-07-09T04:38:34.516Z,23.31
2023-07-09T04:39:12.306Z,23.23
2023-07-09T04:40:12.279Z,23.32
2023-07-09T04:41:12.244Z,23.32
2023-07-09T04:42:12.217Z,23.39
2023-07-09T04:43:12.196Z,23.34
2023-07-09T04:44:33.166Z,23.28
2023-07-09T04:45:12.162Z,23.28
2023-07-09T04:46:13.247Z,23.37
2023-07-09T04:47:12.078Z,23.27
2023-07-09T04:48:12.076Z,23.40
2023-07-09T04:49:12.020Z,23.37
2023-07-09T04:50:32.995Z,23.31
2023-07-09T04:51:11.973Z,23.39
2023-07-09T04:52:11.972Z,23.39
2023-07-09T04:53:11.908Z,23.39
2023-07-09T04:54:11.917Z,23.41
2023-07-09T04:55:11.848Z,23.40
2023-07-09T04:56:32.842Z,23.43
2023-07-09T04:57:11.792Z,23.47
2023-07-09T04:58:11.784Z,23.50
2023-07-09T04:59:11.735Z,23.47
2023-07-09T05:00:12.236Z,23.51
2023-07-09T05:01:11.725Z,23.55
2023-07-09T05:02:32.691Z,23.54
2023-07-09T05:03:11.706Z,23.50
2023-07-09T05:04:11.641Z,23.59
2023-07-09T05:05:11.568Z,23.58
2023-07-09T05:06:11.568Z,23.59
2023-07-09T05:07:11.512Z,23.61
2023-07-09T05:08:32.494Z,23.63
2023-07-09T05:09:11.459Z,23.73
2023-07-09T05:10:11.433Z,23.65
2023-07-09T05:11:11.399Z,23.68
2023-07-09T05:12:11.381Z,23.71
2023-07-09T05:13:11.367Z,23.69
2023-07-09T05:14:32.316Z,23.77
2023-07-09T05:15:11.289Z,23.76
2023-07-09T05:16:11.305Z,23.76
2023-07-09T05:17:11.230Z,23.86
2023-07-09T05:18:11.236Z,23.77
2023-07-09T05:19:11.178Z,23.83
2023-07-09T05:20:32.158Z,23.95
2023-07-09T05:21:11.130Z,23.88
2023-07-09T05:22:11.100Z,23.86
2023-07-09T05:23:11.067Z,23.95
2023-07-09T05:24:11.125Z,23.91
2023-07-09T05:25:11.011Z,23.93
2023-07-09T05:26:31.982Z,23.92
2023-07-09T05:27:10.949Z,23.95
2023-07-09T05:28:10.927Z,24.01
2023-07-09T05:29:10.903Z,23.98
2023-07-09T05:30:10.887Z,23.96
2023-07-09T05:31:10.901Z,23.93
2023-07-09T05:32:31.857Z,24.14
2023-07-09T05:33:10.866Z,24.08
2023-07-09T05:34:10.758Z,23.98
2023-07-09T05:35:10.739Z,24.08
2023-07-09T05:36:10.699Z,24.10
2023-07-09T05:37:10.668Z,24.13
2023-07-09T05:38:31.703Z,24.13
2023-07-09T05:39:10.634Z,24.13
2023-07-09T05:40:10.584Z,24.21
2023-07-09T05:41:10.560Z,24.21
2023-07-09T05:42:10.535Z,24.29
2023-07-09T05:43:10.501Z,24.24
2023-07-09T05:44:31.474Z,24.21
2023-07-09T05:45:10.458Z,24.35
2023-07-09T05:46:10.431Z,24.35
2023-07-09T05:47:10.448Z,24.36
2023-07-09T05:48:10.388Z,24.32
2023-07-09T05:49:12.012Z,24.35
2023-07-09T05:50:31.337Z,24.39
2023-07-09T05:51:10.277Z,24.40
2023-07-09T05:52:10.252Z,24.39
2023-07-09T05:53:10.227Z,24.54
2023-07-09T05:54:10.205Z,24.42
2023-07-09T05:55:10.170Z,24.58
2023-07-09T05:56:31.145Z,24.54
2023-07-09T05:57:10.113Z,24.55
2023-07-09T05:58:10.099Z,24.50
2023-07-09T05:59:10.062Z,24.60
2023-07-09T06:00:12.046Z,24.57
2023-07-09T06:01:10.071Z,24.58
2023-07-09T06:02:31.013Z,24.68
2023-07-09T06:03:10.074Z,24.57
2023-07-09T06:04:10.037Z,24.60
2023-07-09T06:05:09.956Z,24.66
2023-07-09T06:06:09.889Z,24.69
2023-07-09T06:07:09.853Z,24.77
2023-07-09T06:08:30.822Z,24.70
2023-07-09T06:09:09.783Z,24.74
2023-07-09T06:10:09.762Z,24.77
2023-07-09T06:11:09.726Z,24.89
2023-07-09T06:12:09.746Z,24.91
2023-07-09T06:13:09.673Z,24.92
2023-07-09T06:14:30.655Z,24.98
2023-07-09T06:15:09.619Z,25.04
2023-07-09T06:16:09.590Z,25.06
2023-07-09T06:17:09.646Z,24.99
2023-07-09T06:18:09.552Z,25.11
2023-07-09T06:19:09.512Z,25.14
2023-07-09T06:20:30.496Z,25.22
2023-07-09T06:21:09.460Z,25.22
2023-07-09T06:22:09.425Z,25.22
2023-07-09T06:23:09.407Z,25.25
2023-07-09T06:24:09.374Z,25.29
2023-07-09T06:25:09.343Z,25.31
2023-07-09T06:26:30.322Z,25.23
2023-07-09T06:27:09.294Z,25.35
2023-07-09T06:28:09.261Z,25.36
2023-07-09T06:29:09.237Z,25.33
2023-07-09T06:30:09.224Z,25.46
2023-07-09T06:31:09.212Z,25.51
2023-07-09T06:32:30.216Z,25.51
2023-07-09T06:33:09.305Z,25.51
2023-07-09T06:34:09.101Z,25.48
2023-07-09T06:35:09.079Z,25.53
2023-07-09T06:36:09.050Z,25.55
2023-07-09T06:37:09.027Z,25.59
2023-07-09T06:38:30.025Z,25.58
2023-07-09T06:39:08.970Z,25.66
2023-07-09T06:40:08.949Z,25.63
2023-07-09T06:41:08.918Z,25.66
2023-07-09T06:42:08.894Z,25.70
2023-07-09T06:43:08.858Z,25.70
2023-07-09T06:44:29.834Z,25.77
2023-07-09T06:45:08.808Z,25.87
2023-07-09T06:46:11.567Z,25.81
2023-07-09T06:47:08.855Z,25.83
2023-07-09T06:48:08.789Z,25.88
2023-07-09T06:49:08.701Z,25.96
2023-07-09T06:50:29.672Z,25.96
2023-07-09T06:51:08.656Z,26.02
2023-07-09T06:52:08.634Z,26.06
2023-07-09T06:53:08.593Z,26.03
2023-07-09T06:54:08.575Z,26.15
2023-07-09T06:55:08.564Z,26.10
2023-07-09T06:56:29.540Z,26.18
2023-07-09T06:57:08.500Z,26.18
2023-07-09T06:58:08.471Z,26.25
2023-07-09T06:59:08.440Z,26.22
2023-07-09T07:00:08.424Z,26.28
2023-07-09T07:01:08.378Z,26.28
2023-07-09T07:02:29.404Z,26.26
2023-07-09T07:03:08.478Z,26.31
2023-07-09T07:04:08.346Z,26.37
2023-07-09T07:05:08.277Z,26.37
2023-07-09T07:06:08.479Z,26.44
2023-07-09T07:07:08.223Z,26.45
2023-07-09T07:08:29.189Z,26.48
2023-07-09T07:09:08.181Z,26.52
2023-07-09T07:10:08.202Z,26.59
2023-07-09T07:11:08.109Z,26.63
2023-07-09T07:12:08.081Z,26.70
2023-07-09T07:13:08.069Z,26.74
2023-07-09T07:14:29.038Z,26.81
2023-07-09T07:15:08.010Z,26.78
2023-07-09T07:16:08.026Z,26.80
2023-07-09T07:17:07.966Z,26.88
2023-07-09T07:18:07.983Z,26.92
2023-07-09T07:19:07.899Z,26.95
2023-07-09T07:20:28.875Z,26.96
2023-07-09T07:21:07.882Z,27.07
2023-07-09T07:22:07.822Z,27.03
2023-07-09T07:23:07.796Z,27.14
2023-07-09T07:24:07.762Z,27.10
2023-07-09T07:25:07.756Z,27.20
2023-07-09T07:26:28.737Z,27.21
2023-07-09T07:27:07.702Z,27.26
2023-07-09T07:28:07.672Z,27.32
2023-07-09T07:29:07.640Z,27.30
2023-07-09T07:30:07.620Z,27.35
2023-07-09T07:31:07.580Z,27.45
2023-07-09T07:32:28.575Z,27.40
2023-07-09T07:33:07.634Z,27.37
2023-07-09T07:34:07.524Z,27.45
2023-07-09T07:35:07.502Z,27.48
2023-07-09T07:36:28.113Z,27.52
2023-07-09T07:37:07.423Z,27.49
2023-07-09T07:38:28.415Z,27.48
2023-07-09T07:39:07.370Z,27.59
2023-07-09T07:40:07.364Z,27.64
2023-07-09T07:41:07.331Z,27.60
2023-07-09T07:42:07.753Z,27.60
2023-07-09T07:43:07.270Z,27.70
2023-07-09T07:44:28.252Z,27.78
2023-07-09T07:45:07.233Z,27.83
2023-07-09T07:46:07.512Z,27.78
2023-07-09T07:47:07.178Z,27.83
2023-07-09T07:48:07.186Z,27.98
2023-07-09T07:49:07.123Z,28.01
2023-07-09T07:50:28.103Z,27.90
2023-07-09T07:51:07.086Z,28.04
2023-07-09T07:52:07.041Z,28.04
2023-07-09T07:53:07.015Z,28.02
2023-07-09T07:54:07.000Z,28.14
2023-07-09T07:55:06.969Z,28.15
2023-07-09T07:56:28.026Z,28.23
2023-07-09T07:57:06.933Z,28.27
2023-07-09T07:58:06.891Z,28.26
2023-07-09T07:59:06.867Z,28.27
2023-07-09T08:00:06.848Z,28.32
2023-07-09T08:01:07.084Z,28.33
2023-07-09T08:02:27.878Z,28.45
2023-07-09T08:03:06.824Z,28.37
2023-07-09T08:04:06.790Z,28.45
2023-07-09T08:05:06.717Z,28.51
2023-07-09T08:06:06.850Z,28.59
2023-07-09T08:07:06.685Z,28.57
2023-07-09T08:08:27.649Z,28.56
2023-07-09T08:09:06.611Z,28.52
2023-07-09T08:10:06.598Z,28.75
2023-07-09T08:11:06.811Z,28.64
2023-07-09T08:12:06.540Z,28.75
2023-07-09T08:13:06.521Z,28.78
2023-07-09T08:14:27.493Z,28.79
2023-07-09T08:15:06.486Z,28.76
2023-07-09T08:16:06.651Z,28.85
2023-07-09T08:17:06.419Z,28.86
2023-07-09T08:18:06.435Z,28.89
2023-07-09T08:19:06.367Z,28.94
2023-07-09T08:20:27.338Z,28.93
2023-07-09T08:21:06.308Z,29.02
2023-07-09T08:22:06.286Z,29.05
2023-07-09T08:23:06.263Z,29.10
2023-07-09T08:24:06.253Z,29.19
2023-07-09T08:25:06.214Z,29.17
2023-07-09T08:26:27.204Z,29.20
2023-07-09T08:27:06.163Z,29.31
2023-07-09T08:28:06.160Z,29.32
2023-07-09T08:29:06.141Z,29.35
2023-07-09T08:30:06.091Z,29.36
2023-07-09T08:31:06.269Z,29.34
2023-07-09T08:32:27.061Z,29.38
2023-07-09T08:33:06.075Z,29.38
2023-07-09T08:34:05.997Z,29.50
2023-07-09T08:35:33.815Z,29.54
2023-07-09T08:36:05.954Z,29.60
2023-07-09T08:37:05.920Z,29.68
2023-07-09T08:38:26.891Z,29.78
2023-07-09T08:39:05.869Z,29.73
2023-07-09T08:40:05.848Z,29.86
2023-07-09T08:41:06.036Z,29.81
2023-07-09T08:42:05.797Z,29.86
2023-07-09T08:43:05.779Z,29.91
2023-07-09T08:44:26.755Z,29.95
2023-07-09T08:46:05.840Z,30.02
2023-07-09T08:47:05.694Z,30.03
2023-07-09T08:48:05.734Z,30.08
2023-07-09T08:49:05.642Z,30.06
2023-07-09T08:50:26.631Z,30.15
2023-07-09T08:51:26.618Z,30.18
2023-07-09T08:52:05.590Z,30.32
2023-07-09T08:53:05.578Z,30.40
2023-07-09T08:54:05.529Z,30.32
2023-07-09T08:55:26.497Z,30.40
2023-07-09T08:56:26.495Z,30.43
2023-07-09T08:57:05.451Z,30.51
2023-07-09T08:58:05.437Z,30.59
2023-07-09T08:59:05.475Z,30.70
2023-07-09T09:00:26.391Z,30.75
2023-07-09T09:01:26.376Z,30.69
2023-07-09T09:02:05.451Z,30.81
2023-07-09T09:03:05.377Z,30.88
2023-07-09T09:04:05.590Z,30.94
2023-07-09T09:05:26.280Z,30.94
2023-07-09T09:06:26.246Z,30.99
2023-07-09T09:07:05.215Z,30.92
2023-07-09T09:08:06.925Z,30.99
2023-07-09T09:09:05.173Z,30.94
2023-07-09T09:10:26.140Z,31.05
2023-07-09T09:11:26.139Z,30.97
2023-07-09T09:12:05.076Z,31.09
2023-07-09T09:13:05.084Z,31.20
2023-07-09T09:14:05.163Z,31.22
2023-07-09T09:15:26.024Z,31.24
2023-07-09T09:16:26.025Z,31.25
2023-07-09T09:17:04.985Z,31.25
2023-07-09T09:18:04.995Z,31.31
2023-07-09T09:19:04.922Z,31.42
2023-07-09T09:20:25.919Z,31.39
2023-07-09T09:21:25.889Z,31.54
2023-07-09T09:22:06.209Z,31.55
2023-07-09T09:23:04.849Z,31.61
2023-07-09T09:24:04.808Z,31.61
2023-07-09T09:25:25.805Z,31.62
2023-07-09T09:27:04.806Z,31.77
2023-07-09T09:28:04.793Z,31.92
2023-07-09T09:29:04.755Z,31.87
2023-07-09T09:30:25.746Z,31.97
2023-07-09T09:32:47.313Z,31.93
2023-07-09T09:33:47.238Z,32.08
2023-07-09T09:35:51.173Z,32.22
2023-07-09T09:36:51.144Z,32.21
2023-07-09T09:37:51.121Z,32.15
2023-07-09T09:38:51.094Z,32.19
2023-07-09T09:40:07.045Z,32.26
2023-07-09T09:40:51.039Z,32.19
2023-07-09T09:41:51.018Z,32.30
2023-07-09T09:42:51.006Z,32.36
2023-07-09T09:43:50.976Z,32.37
2023-07-09T09:44:50.948Z,32.53
2023-07-09T09:45:50.929Z,32.48
2023-07-09T09:46:50.966Z,32.52
2023-07-09T09:47:50.905Z,32.60
2023-07-09T09:48:50.879Z,32.65
2023-07-09T09:49:50.837Z,32.70
2023-07-09T09:50:50.818Z,32.68
2023-07-09T09:51:50.799Z,32.71
2023-07-09T09:52:50.793Z,32.70
2023-07-09T09:53:50.745Z,32.73
2023-07-09T09:54:50.718Z,32.85
2023-07-09T09:55:50.700Z,32.95
2023-07-09T09:56:50.676Z,32.90
2023-07-09T09:57:50.659Z,33.02
2023-07-09T09:58:50.633Z,33.00
2023-07-09T09:59:50.635Z,33.04
2023-07-09T10:00:50.633Z,33.07
2023-07-09T10:01:50.598Z,33.14
2023-07-09T10:02:50.676Z,33.17
2023-07-09T10:03:52.769Z,33.28
2023-07-09T10:04:50.497Z,33.23
2023-07-09T10:05:50.475Z,33.28
2023-07-09T10:06:50.454Z,33.27
2023-07-09T10:07:50.459Z,33.32
2023-07-09T10:08:50.410Z,33.31
2023-07-09T10:09:50.419Z,33.22
2023-07-09T10:10:50.369Z,33.19
2023-07-09T10:11:50.343Z,33.27
2023-07-09T10:12:50.331Z,33.46
2023-07-09T10:13:50.364Z,33.53
2023-07-09T10:14:50.277Z,33.65
2023-07-09T10:15:50.255Z,33.67
2023-07-09T10:16:50.238Z,33.67
2023-07-09T10:17:50.287Z,33.64
2023-07-09T10:18:50.271Z,33.69
2023-07-09T10:19:50.166Z,33.77
2023-07-09T10:20:50.197Z,33.83
2023-07-09T10:21:50.127Z,33.84
2023-07-09T10:22:50.098Z,33.87
2023-07-09T10:23:50.127Z,33.90
2023-07-09T10:24:50.054Z,34.02
2023-07-09T10:25:50.036Z,34.01
2023-07-09T10:26:50.020Z,34.02
2023-07-09T10:27:50.000Z,34.20
2023-07-09T10:28:50.006Z,34.25
2023-07-09T10:29:49.953Z,34.20
2023-07-09T10:30:49.962Z,34.32
2023-07-09T10:31:49.902Z,34.35
2023-07-09T10:32:49.906Z,34.39
2023-07-09T10:33:49.862Z,34.45
2023-07-09T10:34:49.838Z,34.45
2023-07-09T10:35:49.813Z,34.57
2023-07-09T10:36:49.820Z,34.57
2023-07-09T10:37:49.796Z,34.55
2023-07-09T10:38:49.747Z,34.64
2023-07-09T10:39:49.754Z,34.73
2023-07-09T10:40:49.710Z,34.74
2023-07-09T10:41:49.696Z,34.78
2023-07-09T10:42:49.664Z,34.89
2023-07-09T10:43:49.659Z,35.05
2023-07-09T10:44:49.624Z,34.99
2023-07-09T10:45:49.597Z,35.12
2023-07-09T10:46:49.640Z,35.23
2023-07-09T10:47:49.614Z,35.22
2023-07-09T10:48:49.553Z,35.23
2023-07-09T10:49:49.517Z,35.36
2023-07-09T10:50:49.583Z,35.46
2023-07-09T10:51:49.490Z,35.55
2023-07-09T10:52:49.460Z,35.68
2023-07-09T10:53:49.441Z,35.68
2023-07-09T10:54:49.416Z,35.73
2023-07-09T10:55:49.389Z,35.82
2023-07-09T10:56:49.384Z,35.95
2023-07-09T10:57:49.357Z,36.04
2023-07-09T10:58:49.343Z,36.01
2023-07-09T10:59:49.343Z,36.08
2023-07-09T11:00:49.292Z,36.18
2023-07-09T11:01:49.303Z,36.36
2023-07-09T11:02:49.360Z,36.35
2023-07-09T11:03:49.245Z,36.47
2023-07-09T11:04:49.240Z,36.62
2023-07-09T11:05:49.202Z,36.68
2023-07-09T11:06:49.167Z,36.80
2023-07-09T11:07:49.154Z,36.95
2023-07-09T11:08:49.127Z,37.01
2023-07-09T11:09:49.140Z,37.03
2023-07-09T11:10:49.094Z,37.18
2023-07-09T11:11:49.076Z,37.32
2023-07-09T11:12:49.054Z,37.42
2023-07-09T11:13:52.457Z,37.53
2023-07-09T11:14:49.014Z,37.64
2023-07-09T11:15:49.582Z,37.68
2023-07-09T11:16:49.189Z,37.70
2023-07-09T11:17:49.090Z,37.75
2023-07-09T11:18:48.947Z,37.64
2023-07-09T11:19:49.390Z,37.72
2023-07-09T11:20:48.900Z,37.70
2023-07-09T11:21:48.886Z,37.70
2023-07-09T11:22:48.916Z,37.74
2023-07-09T11:23:48.941Z,37.89
2023-07-09T11:24:48.845Z,37.82
2023-07-09T11:25:48.818Z,37.97
2023-07-09T11:26:48.908Z,38.02
2023-07-09T11:27:48.776Z,38.15
2023-07-09T11:28:48.755Z,38.20
2023-07-09T11:29:48.746Z,38.28
2023-07-09T11:30:48.745Z,38.34
2023-07-09T11:31:48.886Z,38.45
2023-07-09T11:32:48.766Z,38.48
2023-07-09T11:33:48.787Z,38.54
2023-07-09T11:34:48.673Z,38.31
2023-07-09T11:35:48.625Z,38.12
2023-07-09T11:36:48.624Z,38.27
2023-07-09T11:37:48.690Z,38.28
2023-07-09T11:38:48.607Z,38.39
2023-07-09T11:39:48.572Z,38.33
2023-07-09T11:40:48.575Z,38.48
2023-07-09T11:41:48.513Z,38.36
2023-07-09T11:42:48.554Z,38.31
2023-07-09T11:43:48.479Z,38.36
2023-07-09T11:44:48.482Z,38.50
2023-07-09T11:45:48.497Z,38.49
2023-07-09T11:46:48.468Z,38.50
2023-07-09T11:47:48.438Z,38.49
2023-07-09T11:48:48.389Z,38.46
2023-07-09T11:49:48.366Z,38.52
2023-07-09T11:50:48.360Z,38.46
2023-07-09T11:51:48.377Z,38.50
2023-07-09T11:52:48.321Z,38.55
2023-07-09T11:53:48.306Z,38.60
2023-07-09T11:54:48.282Z,38.68
2023-07-09T11:55:48.268Z,38.49
2023-07-09T11:56:48.267Z,38.52
2023-07-09T11:57:48.226Z,38.57
2023-07-09T11:58:48.227Z,38.60
2023-07-09T11:59:48.210Z,38.45
2023-07-09T12:00:48.174Z,38.49
2023-07-09T12:01:48.278Z,38.50
2023-07-09T12:02:48.178Z,38.65
2023-07-09T12:03:48.161Z,38.55
2023-07-09T12:04:48.102Z,38.58
2023-07-09T12:05:48.085Z,38.73
2023-07-09T12:06:48.077Z,38.79
2023-07-09T12:07:48.054Z,38.84
2023-07-09T12:08:48.039Z,38.79
2023-07-09T12:09:48.009Z,38.89
2023-07-09T12:10:48.004Z,38.95
2023-07-09T12:11:47.980Z,39.06
2023-07-09T12:12:47.955Z,39.29
2023-07-09T12:13:47.975Z,39.34
2023-07-09T12:14:47.919Z,39.36
2023-07-09T12:15:47.935Z,39.31
2023-07-09T12:16:48.004Z,39.29
2023-07-09T12:17:47.977Z,39.30
2023-07-09T12:18:47.850Z,39.26
2023-07-09T12:19:47.825Z,39.26
2023-07-09T12:20:47.823Z,39.22
2023-07-09T12:21:47.806Z,39.18
2023-07-09T12:22:47.793Z,38.96
2023-07-09T12:23:47.789Z,39.00
2023-07-09T12:24:47.762Z,38.97
2023-07-09T12:25:47.733Z,38.99
2023-07-09T12:26:47.709Z,39.03
2023-07-09T12:27:47.697Z,39.14
2023-07-09T12:28:47.676Z,39.25
2023-07-09T12:29:47.749Z,39.17
2023-07-09T12:30:48.530Z,39.11
2023-07-09T12:31:47.689Z,39.12
2023-07-09T12:32:47.716Z,39.00
2023-07-09T12:33:47.631Z,38.87
2023-07-09T12:34:47.567Z,38.95
2023-07-09T12:35:47.549Z,38.96
2023-07-09T12:36:47.524Z,38.83
2023-07-09T12:37:47.509Z,38.82
2023-07-09T12:38:47.498Z,38.79
2023-07-09T12:39:47.469Z,38.80
2023-07-09T12:40:47.459Z,38.84
2023-07-09T12:41:47.458Z,38.77
2023-07-09T12:42:47.416Z,38.60
2023-07-09T12:43:47.400Z,38.43
2023-07-09T12:44:47.390Z,38.40
2023-07-09T12:45:47.384Z,38.26
2023-07-09T12:46:47.400Z,38.24
2023-07-09T12:47:47.368Z,38.27
2023-07-09T12:48:47.314Z,38.24
2023-07-09T12:49:47.288Z,38.21
2023-07-09T12:50:47.280Z,38.26
2023-07-09T12:51:47.252Z,38.33
2023-07-09T12:52:47.235Z,38.27
2023-07-09T12:53:47.210Z,38.27
2023-07-09T12:54:47.201Z,38.34
2023-07-09T12:55:47.173Z,38.52
2023-07-09T12:56:47.174Z,38.55